Time;durP1;ratioP1;P1;durP2;ratioP2;P2;SDS_P1;SDS_P2;PMS_P1;PMS_P2;Temp;Humidity;BMP_temperature;BMP_pressure;BME280_temperature;BME280_humidity;BME280_pressure;Samples;Min_cycle;Max_cycle;Signal;HPM_P1;HPM_P2
2021/03/10 00:01:06;;;;;;;;;;;;;;;14.17;42.56;101939.09;5098145;28;20018;-88
2021/03/10 00:03:32;;;;;;;;;;;;;;;13.37;44.42;101937.13;5098364;28;19919;-88
2021/03/10 00:05:57;;;;;;;;;;;;;;;13.76;44.44;101933.66;5099807;28;19916;-89
2021/03/10 00:08:23;;;;;;;;;;;;;;;13.20;45.37;101934.22;5100033;28;19923;-87
2021/03/10 00:10:49;;;;;;;;;;;;;;;13.56;44.94;101922.78;5100920;28;20391;-88
2021/03/10 00:13:15;;;;;;;;;;;;;;;13.31;45.39;101923.75;5100392;28;19970;-88
2021/03/10 00:15:40;;;;;;;;;;;;;;;13.39;45.27;101921.66;5097435;28;19942;-87
2021/03/10 00:18:06;;;;;;;;;;;;;;;13.74;44.59;101930.13;5098418;28;20025;-89
2021/03/10 00:20:31;;;;;;;;;;;;;;;13.58;45.31;101918.16;5099087;28;19931;-89
2021/03/10 00:22:56;;;;;;;;;;;;;;;13.12;46.42;101927.25;5101334;28;20018;-90
2021/03/10 00:25:21;;;;;;;;;;;;;;;12.75;47.85;101917.84;5100143;28;19916;-90
2021/03/10 00:27:47;;;;;;;;;;;;;;;13.20;47.04;101915.19;5101634;28;19923;-89
2021/03/10 00:30:13;;;;;;;;;;;;;;;13.12;47.25;101913.66;5101280;28;19916;-85
2021/03/10 00:32:39;;;;;;;;;;;;;;;12.52;48.56;101912.47;5099741;28;20453;-84
2021/03/10 00:35:05;;;;;;;;;;;;;;;12.83;48.16;101923.00;5099022;28;19967;-89
2021/03/10 00:37:30;;;;;;;;;;;;;;;12.36;49.36;101921.16;5099228;28;19987;-87
2021/03/10 00:39:55;;;;;;;;;;;;;;;12.75;49.42;101917.84;5101213;28;19959;-85
2021/03/10 00:42:21;;;;;;;;;;;;;;;12.39;50.27;101912.94;5100249;28;19916;-90
2021/03/10 00:44:46;;;;;;;;;;;;;;;12.37;50.29;101920.22;5106438;28;19920;-83
2021/03/10 00:47:12;;;;;;;;;;;;;;;11.95;50.89;101920.00;5105253;28;20327;-83
2021/03/10 00:49:38;;;;;;;;;;;;;;;11.74;52.47;101922.50;5104090;28;20018;-84
2021/03/10 00:52:03;;;;;;;;;;;;;;;12.23;51.13;101915.34;5087745;28;19979;-86
2021/03/10 00:54:29;;;;;;;;;;;;;;;11.53;53.45;101924.13;5106326;28;19916;-83
2021/03/10 00:56:54;;;;;;;;;;;;;;;11.92;52.01;101928.22;5106506;28;19962;-83
2021/03/10 00:59:19;;;;;;;;;;;;;;;12.71;50.12;101918.03;5108200;28;19992;-82
2021/03/10 01:01:44;;;;;;;;;;;;;;;12.58;50.63;101912.22;5108207;28;19962;-82
2021/03/10 01:04:10;;;;;;;;;;;;;;;12.69;49.62;101922.66;5107228;28;19916;-83
2021/03/10 01:06:35;;;;;;;;;;;;;;;12.12;52.18;101928.41;5106698;28;19976;-82
2021/03/10 01:09:00;;;;;;;;;;;;;;;12.59;50.50;101933.88;5106861;28;19916;-85
2021/03/10 01:11:25;;;;;;;;;;;;;;;12.70;49.74;101936.19;5106689;28;20022;-85
2021/03/10 01:13:51;;;;;;;;;;;;;;;12.76;49.47;101930.50;5104973;28;19919;-86
2021/03/10 01:16:16;;;;;;;;;;;;;;;12.39;51.27;101918.38;5104632;28;19928;-84
2021/03/10 01:18:42;;;;;;;;;;;;;;;11.73;52.86;101917.13;5104537;28;19916;-88
2021/03/10 01:21:07;;;;;;;;;;;;;;;12.62;50.15;101922.03;5103410;28;19922;-85
2021/03/10 01:23:32;;;;;;;;;;;;;;;12.36;51.06;101923.88;5099576;28;19951;-88
2021/03/10 01:25:58;;;;;;;;;;;;;;;12.31;51.41;101919.59;5105644;28;19912;-83
2021/03/10 01:28:23;;;;;;;;;;;;;;;12.67;50.78;101920.00;5109470;28;19916;-82
2021/03/10 01:30:49;;;;;;;;;;;;;;;12.16;52.02;101924.63;5110305;28;19912;-84
2021/03/10 01:33:14;;;;;;;;;;;;;;;11.76;52.94;101923.34;5110658;28;19916;-83
2021/03/10 01:35:39;;;;;;;;;;;;;;;12.14;51.99;101928.34;5110030;28;19916;-82
2021/03/10 01:38:05;;;;;;;;;;;;;;;12.56;51.54;101931.28;5111906;28;19947;-84
2021/03/10 01:40:30;;;;;;;;;;;;;;;11.88;52.93;101927.44;5110726;28;19927;-82
2021/03/10 01:43:00;;;;;;;;;;;;;;;12.96;50.58;101927.94;5108357;28;19930;-82
2021/03/10 01:45:27;;;;;;;;;;;;;;;12.69;50.75;101915.38;5106056;28;19935;-89
2021/03/10 01:47:52;;;;;;;;;;;;;;;12.58;51.08;101904.06;5100288;28;19923;-88
2021/03/10 01:50:18;;;;;;;;;;;;;;;12.67;51.34;101897.41;5101723;28;19916;-84
2021/03/10 01:52:43;;;;;;;;;;;;;;;12.11;52.55;101901.31;5100622;28;19923;-87
2021/03/10 01:55:09;;;;;;;;;;;;;;;11.87;53.38;101899.44;5097107;28;19939;-90
2021/03/10 01:57:35;;;;;;;;;;;;;;;12.09;52.60;101887.81;5097908;28;19923;-91
2021/03/10 02:00:00;;;;;;;;;;;;;;;11.77;53.66;101888.97;5099922;28;19920;-86
2021/03/10 02:02:25;;;;;;;;;;;;;;;12.24;52.62;101883.66;5100110;28;19920;-89
2021/03/10 02:04:51;;;;;;;;;;;;;;;12.26;52.28;101878.16;5101846;28;20015;-89
2021/03/10 02:07:27;;;;;;;;;;;;;;;11.81;53.18;101880.69;5102303;28;19927;-88
2021/03/10 02:10:05;;;;;;;;;;;;;;;11.89;53.20;101875.84;5101489;28;19916;-91
2021/03/10 02:12:48;;;;;;;;;;;;;;;11.65;53.62;101883.03;5104418;28;20007;-83
2021/03/10 02:15:13;;;;;;;;;;;;;;;11.90;53.09;101876.75;5101192;28;19939;-87
2021/03/10 02:17:41;;;;;;;;;;;;;;;12.18;52.43;101875.75;5100108;28;20373;-87
2021/03/10 02:20:11;;;;;;;;;;;;;;;11.99;52.81;101876.44;5099889;28;20006;-89
2021/03/10 02:22:39;;;;;;;;;;;;;;;12.30;51.40;101872.56;5102360;28;19962;-88
2021/03/10 02:25:14;;;;;;;;;;;;;;;11.54;52.97;101877.13;5105293;28;20002;-85
2021/03/10 02:27:40;;;;;;;;;;;;;;;11.47;53.30;101879.19;5101957;28;20004;-88
2021/03/10 02:30:14;;;;;;;;;;;;;;;11.76;52.80;101869.13;5101398;28;19920;-85
2021/03/10 02:32:40;;;;;;;;;;;;;;;11.80;52.70;101870.75;5102227;28;19916;-88
2021/03/10 02:35:07;;;;;;;;;;;;;;;12.44;50.94;101860.28;5100333;28;20262;-88
2021/03/10 02:37:33;;;;;;;;;;;;;;;11.51;53.27;101853.72;5101332;28;19916;-88
2021/03/10 02:39:59;;;;;;;;;;;;;;;11.66;53.19;101862.25;5082519;28;19927;-90
2021/03/10 02:42:25;;;;;;;;;;;;;;;11.59;53.31;101853.44;5099886;28;19916;-85
2021/03/10 02:44:51;;;;;;;;;;;;;;;11.75;52.29;101855.63;5101040;28;20026;-89
2021/03/10 02:47:17;;;;;;;;;;;;;;;10.98;54.29;101856.47;5098711;28;19924;-87
2021/03/10 02:49:42;;;;;;;;;;;;;;;11.10;54.09;101847.94;5099034;28;19930;-88
2021/03/10 02:52:10;;;;;;;;;;;;;;;11.62;52.98;101853.34;5099580;28;19931;-88
2021/03/10 02:54:36;;;;;;;;;;;;;;;11.64;52.62;101845.16;5099124;28;19961;-93
2021/03/10 02:57:01;;;;;;;;;;;;;;;10.65;55.42;101837.66;5101154;28;20010;-84
2021/03/10 02:59:27;;;;;;;;;;;;;;;11.71;52.88;101835.88;5100719;28;19955;-90
2021/03/10 03:01:54;;;;;;;;;;;;;;;11.03;54.90;101823.81;5101340;28;19917;-82
2021/03/10 03:04:19;;;;;;;;;;;;;;;10.56;56.67;101825.31;5101030;28;20377;-87
2021/03/10 03:06:45;;;;;;;;;;;;;;;11.49;54.05;101816.81;5098977;28;19924;-88
2021/03/10 03:09:10;;;;;;;;;;;;;;;11.18;54.81;101815.16;5099225;28;19916;-87
2021/03/10 03:11:36;;;;;;;;;;;;;;;11.23;54.67;101818.63;5098566;28;19916;-87
2021/03/10 03:14:02;;;;;;;;;;;;;;;11.09;55.38;101808.22;5099369;28;19951;-85
2021/03/10 03:16:28;;;;;;;;;;;;;;;11.30;55.20;101805.72;5098826;28;19932;-86
2021/03/10 03:18:53;;;;;;;;;;;;;;;10.66;56.35;101806.97;5098674;28;19917;-87
2021/03/10 03:21:19;;;;;;;;;;;;;;;10.72;56.64;101805.88;5100280;28;19920;-88
2021/03/10 03:23:44;;;;;;;;;;;;;;;10.74;56.86;101794.06;5102132;28;19916;-83
2021/03/10 03:26:10;;;;;;;;;;;;;;;10.97;56.30;101798.69;5105230;28;19920;-83
2021/03/10 03:28:35;;;;;;;;;;;;;;;11.43;54.04;101801.66;5105901;28;19922;-83
2021/03/10 03:31:01;;;;;;;;;;;;;;;11.06;55.69;101799.34;5100230;28;19923;-83
2021/03/10 03:33:27;;;;;;;;;;;;;;;11.62;53.82;101800.97;5099293;28;19941;-83
2021/03/10 03:35:55;;;;;;;;;;;;;;;11.36;54.46;101797.38;5099966;28;19916;-86
2021/03/10 03:38:24;;;;;;;;;;;;;;;11.40;54.23;101793.63;5099270;28;19963;-86
2021/03/10 03:40:50;;;;;;;;;;;;;;;11.99;52.75;101800.50;5105381;28;20430;-82
2021/03/10 03:43:16;;;;;;;;;;;;;;;11.34;54.20;101802.84;5100594;28;19922;-86
2021/03/10 03:45:41;;;;;;;;;;;;;;;11.31;54.50;101811.09;5101344;28;19995;-86
2021/03/10 03:48:07;;;;;;;;;;;;;;;11.68;53.49;101808.88;5100964;28;19920;-85
2021/03/10 03:50:33;;;;;;;;;;;;;;;11.89;52.47;101804.47;5101967;28;19916;-86
2021/03/10 03:52:58;;;;;;;;;;;;;;;11.64;53.72;101805.41;5103757;28;19961;-86
2021/03/10 03:55:23;;;;;;;;;;;;;;;11.43;54.03;101801.66;5100303;28;19922;-88
2021/03/10 03:57:49;;;;;;;;;;;;;;;12.00;52.76;101805.00;5096805;28;20011;-88
2021/03/10 04:00:17;;;;;;;;;;;;;;;12.11;52.20;101801.88;5096692;28;19916;-85
2021/03/10 04:02:42;;;;;;;;;;;;;;;12.12;52.07;101805.47;5098180;28;20313;-88
2021/03/10 04:05:08;;;;;;;;;;;;;;;11.73;52.85;101804.19;5097405;28;19916;-85
2021/03/10 04:07:34;;;;;;;;;;;;;;;11.79;52.40;101798.53;5096921;28;19923;-86
2021/03/10 04:09:59;;;;;;;;;;;;;;;11.28;54.28;101792.25;5096765;28;19939;-88
2021/03/10 04:12:24;;;;;;;;;;;;;;;11.27;54.13;101790.47;5096629;28;19962;-87
2021/03/10 04:14:49;;;;;;;;;;;;;;;11.55;53.26;101784.06;5102398;28;19932;-82
2021/03/10 04:17:15;;;;;;;;;;;;;;;11.38;53.67;101776.53;5106830;28;20296;-81
2021/03/10 04:19:40;;;;;;;;;;;;;;;11.47;54.45;101778.94;5107268;28;19923;-82
2021/03/10 04:22:06;;;;;;;;;;;;;;;11.06;54.47;101778.56;5104682;28;19916;-86
2021/03/10 04:24:31;;;;;;;;;;;;;;;11.54;53.94;101771.44;5100160;28;19916;-91
2021/03/10 04:26:56;;;;;;;;;;;;;;;11.26;54.42;101772.47;5099855;28;20361;-86
2021/03/10 04:29:21;;;;;;;;;;;;;;;11.19;54.67;101773.59;5100376;28;19978;-87
2021/03/10 04:31:47;;;;;;;;;;;;;;;11.28;54.32;101767.84;5099976;28;20431;-85
2021/03/10 04:34:12;;;;;;;;;;;;;;;11.12;54.99;101770.22;5100916;28;20275;-84
2021/03/10 04:36:37;;;;;;;;;;;;;;;10.87;55.38;101766.59;5084768;28;20014;-81
2021/03/10 04:39:03;;;;;;;;;;;;;;;10.82;55.56;101766.75;5111346;28;19916;-82
2021/03/10 04:41:28;;;;;;;;;;;;;;;11.14;55.18;101756.63;5112915;28;20390;-83
2021/03/10 04:43:53;;;;;;;;;;;;;;;11.62;53.40;101765.72;5111367;28;19916;-82
2021/03/10 04:46:20;;;;;;;;;;;;;;;11.09;54.91;101764.91;5112393;28;20004;-81
2021/03/10 04:48:45;;;;;;;;;;;;;;;11.18;54.63;101764.56;5113147;28;19916;-83
2021/03/10 04:51:10;;;;;;;;;;;;;;;11.15;54.41;101769.22;5110572;28;19916;-82
2021/03/10 04:53:35;;;;;;;;;;;;;;;11.15;54.35;101761.09;5109500;28;19923;-83
2021/03/10 04:56:00;;;;;;;;;;;;;;;11.49;53.39;101758.06;5101134;28;19989;-85
2021/03/10 04:58:26;;;;;;;;;;;;;;;11.20;54.71;101750.97;5100855;28;19927;-87
2021/03/10 05:00:51;;;;;;;;;;;;;;;11.81;52.76;101752.38;5101041;28;19920;-88
2021/03/10 05:03:17;;;;;;;;;;;;;;;11.36;53.83;101748.63;5099954;28;19916;-88
2021/03/10 05:05:42;;;;;;;;;;;;;;;11.14;54.25;101751.19;5099369;28;19951;-88
2021/03/10 05:08:07;;;;;;;;;;;;;;;11.23;54.22;101748.19;5101515;28;19916;-82
2021/03/10 05:10:32;;;;;;;;;;;;;;;10.87;54.50;101750.34;5103726;28;19923;-86
2021/03/10 05:12:58;;;;;;;;;;;;;;;10.89;55.44;101748.47;5098421;28;19923;-89
2021/03/10 05:15:23;;;;;;;;;;;;;;;10.90;55.24;101759.25;5097941;28;19924;-87
2021/03/10 05:17:48;;;;;;;;;;;;;;;10.88;55.43;101750.28;5097475;28;19923;-86
2021/03/10 05:20:14;;;;;;;;;;;;;;;10.93;54.93;101745.63;5097738;28;19956;-88
2021/03/10 05:22:39;;;;;;;;;;;;;;;11.01;55.57;101749.88;5098594;28;19916;-87
2021/03/10 05:25:05;;;;;;;;;;;;;;;10.82;55.42;101746.00;5097858;28;19920;-89
2021/03/10 05:27:31;;;;;;;;;;;;;;;10.52;56.03;101747.00;5097944;28;19924;-89
2021/03/10 05:29:57;;;;;;;;;;;;;;;10.64;56.29;101752.00;5098040;28;19924;-87
2021/03/10 05:32:23;;;;;;;;;;;;;;;10.87;55.03;101751.25;5098192;28;19916;-89
2021/03/10 05:34:48;;;;;;;;;;;;;;;10.98;54.93;101749.03;5097936;28;19924;-86
2021/03/10 05:37:13;;;;;;;;;;;;;;;11.00;54.74;101746.28;5097558;28;20335;-87
2021/03/10 05:39:39;;;;;;;;;;;;;;;11.39;53.96;101748.50;5099225;28;19916;-85
2021/03/10 05:42:05;;;;;;;;;;;;;;;11.49;53.14;101749.06;5098191;28;19916;-86
2021/03/10 05:44:30;;;;;;;;;;;;;;;10.82;55.33;101755.91;5098621;28;20315;-83
2021/03/10 05:46:55;;;;;;;;;;;;;;;11.04;54.42;101747.94;5097537;28;19915;-87
2021/03/10 05:49:21;;;;;;;;;;;;;;;10.56;55.55;101746.84;5097468;28;20443;-87
2021/03/10 05:51:49;;;;;;;;;;;;;;;10.77;55.07;101744.38;5097153;28;20365;-85
2021/03/10 05:54:14;;;;;;;;;;;;;;;10.82;55.01;101739.66;5097068;28;19912;-87
2021/03/10 05:56:43;;;;;;;;;;;;;;;10.54;55.54;101739.75;5097327;28;19930;-89
2021/03/10 05:59:09;;;;;;;;;;;;;;;10.97;54.67;101739.13;5097205;28;19912;-84
2021/03/10 06:01:34;;;;;;;;;;;;;;;11.54;52.92;101738.91;5096988;28;19927;-86
2021/03/10 06:04:00;;;;;;;;;;;;;;;11.37;53.32;101741.34;5096998;28;19987;-87
2021/03/10 06:06:32;;;;;;;;;;;;;;;11.26;53.75;101739.94;5097309;28;19916;-87
2021/03/10 06:09:08;;;;;;;;;;;;;;;10.93;53.80;101732.06;5097791;28;20053;-86
2021/03/10 06:11:33;;;;;;;;;;;;;;;10.85;54.67;101731.44;5097815;28;19916;-88
2021/03/10 06:13:58;;;;;;;;;;;;;;;10.85;54.90;101733.28;5097525;28;19927;-87
2021/03/10 06:16:25;;;;;;;;;;;;;;;11.01;54.24;101725.53;5098188;28;20294;-87
2021/03/10 06:19:04;;;;;;;;;;;;;;;10.59;55.30;101727.81;5093602;28;19927;-88
2021/03/10 06:21:29;;;;;;;;;;;;;;;10.85;54.78;101734.16;5094601;28;19916;-87
2021/03/10 06:23:55;;;;;;;;;;;;;;;11.46;53.15;101719.38;5095918;28;19952;-85
2021/03/10 06:26:24;;;;;;;;;;;;;;;10.62;55.33;101727.69;5095328;28;19916;-83
2021/03/10 06:28:49;;;;;;;;;;;;;;;11.07;53.95;101714.47;5096039;28;19916;-88
2021/03/10 06:31:19;;;;;;;;;;;;;;;10.97;54.20;101717.47;5096834;28;19939;-81
2021/03/10 06:33:45;;;;;;;;;;;;;;;11.97;51.61;101715.63;5101019;28;19922;-84
2021/03/10 06:36:10;;;;;;;;;;;;;;;10.68;55.10;101720.34;5100748;28;20015;-81
2021/03/10 06:38:36;;;;;;;;;;;;;;;11.56;52.67;101720.75;5098430;28;19924;-84
2021/03/10 06:41:02;;;;;;;;;;;;;;;11.12;53.77;101721.47;5095074;28;19923;-86
2021/03/10 06:43:33;;;;;;;;;;;;;;;11.77;52.37;101707.34;5094587;28;20353;-88
2021/03/10 06:46:12;;;;;;;;;;;;;;;11.11;53.35;101721.50;5095020;28;19927;-86
2021/03/10 06:48:37;;;;;;;;;;;;;;;10.88;54.20;101716.94;5093612;28;19920;-87
2021/03/10 06:51:11;;;;;;;;;;;;;;;10.80;55.04;101719.91;5093862;28;19927;-87
2021/03/10 06:53:36;;;;;;;;;;;;;;;11.49;53.02;101713.84;5092785;28;19916;-84
2021/03/10 06:56:01;;;;;;;;;;;;;;;11.08;54.17;101719.81;5092517;28;20440;-85
2021/03/10 06:58:26;;;;;;;;;;;;;;;11.02;54.00;101724.56;5093824;28;19920;-85
2021/03/10 07:01:01;;;;;;;;;;;;;;;11.56;53.05;101725.31;5093771;28;20023;-86
2021/03/10 07:03:28;;;;;;;;;;;;;;;10.91;54.67;101716.81;5092469;28;19977;-85
2021/03/10 07:05:53;;;;;;;;;;;;;;;10.97;54.63;101722.00;5092204;28;20396;-88
2021/03/10 07:08:19;;;;;;;;;;;;;;;10.91;54.58;101717.69;5092608;28;19920;-85
2021/03/10 07:10:44;;;;;;;;;;;;;;;10.90;54.53;101712.34;5093078;28;19916;-82
2021/03/10 07:13:10;;;;;;;;;;;;;;;11.41;53.42;101713.22;5093549;28;19949;-88
2021/03/10 07:15:35;;;;;;;;;;;;;;;10.86;54.93;101714.28;5095603;28;19936;-90
2021/03/10 07:18:02;;;;;;;;;;;;;;;11.48;53.49;101712.06;5096530;28;19951;-88
2021/03/10 07:20:27;;;;;;;;;;;;;;;10.93;55.45;101713.13;5093738;28;19941;-87
2021/03/10 07:23:09;;;;;;;;;;;;;;;10.87;55.35;101710.63;5094850;28;19999;-86
2021/03/10 07:25:36;;;;;;;;;;;;;;;11.37;54.26;101712.47;5096806;28;19916;-89
2021/03/10 07:28:06;;;;;;;;;;;;;;;10.99;55.37;101712.91;5098929;28;19916;-89
2021/03/10 07:30:45;;;;;;;;;;;;;;;11.05;55.28;101711.81;5100519;28;20389;-84
2021/03/10 07:33:12;;;;;;;;;;;;;;;11.25;54.60;101711.09;5100280;28;19926;-86
2021/03/10 07:35:53;;;;;;;;;;;;;;;11.42;54.25;101712.28;5100033;28;19916;-85
2021/03/10 07:38:23;;;;;;;;;;;;;;;11.74;53.61;101716.47;5099527;28;20280;-83
2021/03/10 07:40:54;;;;;;;;;;;;;;;11.97;53.00;101715.63;5098909;28;19939;-85
2021/03/10 07:43:20;;;;;;;;;;;;;;;12.37;52.13;101710.41;5098682;28;19920;-80
2021/03/10 07:45:45;;;;;;;;;;;;;;;11.69;53.70;101704.94;5109577;28;19928;-82
2021/03/10 07:48:10;;;;;;;;;;;;;;;11.62;54.09;101706.97;5109764;28;19923;-84
2021/03/10 07:50:38;;;;;;;;;;;;;;;11.89;53.44;101704.16;5106951;28;19920;-80
2021/03/10 07:53:03;;;;;;;;;;;;;;;11.47;54.37;101705.75;5112158;28;19943;-84
2021/03/10 07:55:28;;;;;;;;;;;;;;;11.49;54.43;101708.41;5109596;28;19916;-81
2021/03/10 07:57:54;;;;;;;;;;;;;;;12.03;53.17;101700.91;5100101;28;19938;-80
2021/03/10 08:00:20;;;;;;;;;;;;;;;11.88;53.41;101697.84;5102103;28;19970;-82
2021/03/10 08:02:47;;;;;;;;;;;;;;;11.26;54.89;101696.59;5101492;28;19916;-82
2021/03/10 08:05:20;;;;;;;;;;;;;;;11.81;53.77;101701.75;5103252;28;19916;-84
2021/03/10 08:07:46;;;;;;;;;;;;;;;11.45;53.65;101701.34;5099400;28;20415;-88
2021/03/10 08:10:11;;;;;;;;;;;;;;;11.48;54.41;101703.94;5096317;28;19920;-87
2021/03/10 08:12:38;;;;;;;;;;;;;;;11.13;55.03;101700.69;5096504;28;19919;-86
2021/03/10 08:15:04;;;;;;;;;;;;;;;11.78;53.96;101692.88;5095141;28;20387;-87
2021/03/10 08:17:29;;;;;;;;;;;;;;;12.19;52.91;101682.22;5095246;28;20060;-88
2021/03/10 08:19:55;;;;;;;;;;;;;;;11.13;55.35;101689.88;5095100;28;19916;-88
2021/03/10 08:22:21;;;;;;;;;;;;;;;11.42;54.90;101696.03;5095094;28;19916;-83
2021/03/10 08:24:46;;;;;;;;;;;;;;;10.90;56.22;101691.56;5094286;28;19916;-84
2021/03/10 08:27:11;;;;;;;;;;;;;;;11.21;55.28;101684.16;5095196;28;19946;-85
2021/03/10 08:29:45;;;;;;;;;;;;;;;11.24;55.14;101682.22;5096501;28;19958;-88
2021/03/10 08:32:12;;;;;;;;;;;;;;;11.16;55.51;101679.78;5094874;28;19920;-86
2021/03/10 08:34:38;;;;;;;;;;;;;;;11.59;54.14;101677.28;5098295;28;19927;-86
2021/03/10 08:37:08;;;;;;;;;;;;;;;11.93;52.56;101686.84;5095249;28;19916;-87
2021/03/10 08:39:39;;;;;;;;;;;;;;;11.67;53.89;101685.13;5096583;28;19920;-84
2021/03/10 08:42:05;;;;;;;;;;;;;;;11.59;54.75;101676.41;5096409;28;19923;-86
2021/03/10 08:44:37;;;;;;;;;;;;;;;11.38;54.77;101672.69;5101599;28;19924;-84
2021/03/10 08:47:09;;;;;;;;;;;;;;;11.48;53.88;101674.13;5093925;28;19916;-86
2021/03/10 08:49:34;;;;;;;;;;;;;;;11.49;53.27;101684.03;5100324;28;19916;-84
2021/03/10 08:52:07;;;;;;;;;;;;;;;11.43;53.76;101681.53;5098109;28;19960;-83
2021/03/10 08:54:42;;;;;;;;;;;;;;;12.25;51.78;101672.94;5095278;28;20266;-89
2021/03/10 08:57:09;;;;;;;;;;;;;;;11.38;53.61;101660.03;5091423;28;20365;-87
2021/03/10 08:59:35;;;;;;;;;;;;;;;11.59;53.31;101655.59;5096160;28;20006;-89
2021/03/10 09:02:00;;;;;;;;;;;;;;;11.29;53.28;101652.25;5097602;28;19963;-88
2021/03/10 09:04:26;;;;;;;;;;;;;;;11.70;52.23;101647.94;5094560;28;19927;-87
2021/03/10 09:06:51;;;;;;;;;;;;;;;12.06;51.61;101638.41;5096400;28;20022;-88
2021/03/10 09:09:17;;;;;;;;;;;;;;;11.31;53.71;101639.56;5094092;28;19971;-85
2021/03/10 09:11:42;;;;;;;;;;;;;;;11.63;52.58;101635.59;5094497;28;19916;-86
2021/03/10 09:14:08;;;;;;;;;;;;;;;11.23;53.31;101630.81;5093299;28;19999;-86
2021/03/10 09:16:34;;;;;;;;;;;;;;;11.49;53.28;101628.00;5093078;28;20014;-84
2021/03/10 09:19:00;;;;;;;;;;;;;;;12.15;51.57;101627.22;5092527;28;19927;-84
2021/03/10 09:21:26;;;;;;;;;;;;;;;11.54;52.48;101635.94;5092367;28;19920;-83
2021/03/10 09:24:01;;;;;;;;;;;;;;;11.94;51.87;101628.97;5091818;28;19916;-84
2021/03/10 09:26:39;;;;;;;;;;;;;;;12.50;50.07;101626.63;5092246;28;19960;-84
2021/03/10 09:29:05;;;;;;;;;;;;;;;11.60;52.81;101629.41;5092379;28;19916;-85
2021/03/10 09:31:30;;;;;;;;;;;;;;;12.31;50.94;101631.97;5093687;28;20010;-84
2021/03/10 09:34:05;;;;;;;;;;;;;;;12.01;51.32;101627.75;5093008;28;19937;-84
2021/03/10 09:36:31;;;;;;;;;;;;;;;12.56;49.68;101623.66;5094329;28;20047;-84
2021/03/10 09:38:57;;;;;;;;;;;;;;;12.32;50.28;101622.88;5093767;28;20016;-83
2021/03/10 09:41:24;;;;;;;;;;;;;;;12.10;50.90;101628.34;5092737;28;19923;-83
2021/03/10 09:43:59;;;;;;;;;;;;;;;12.62;49.42;101620.69;5092966;28;19920;-84
2021/03/10 09:46:24;;;;;;;;;;;;;;;13.13;48.01;101610.25;5092839;28;19924;-84
2021/03/10 09:48:49;;;;;;;;;;;;;;;12.66;48.72;101611.44;5092786;28;20018;-85
2021/03/10 09:51:15;;;;;;;;;;;;;;;13.09;48.16;101605.94;5093036;28;20010;-85
2021/03/10 09:53:42;;;;;;;;;;;;;;;12.48;48.42;101610.41;5092917;28;19916;-83
2021/03/10 09:56:08;;;;;;;;;;;;;;;13.30;47.37;101595.91;5094606;28;19920;-85
2021/03/10 09:58:44;;;;;;;;;;;;;;;13.09;47.03;101600.50;5093302;28;19920;-85
2021/03/10 10:01:09;;;;;;;;;;;;;;;13.28;46.69;101592.34;5092899;28;20066;-86
2021/03/10 10:03:34;;;;;;;;;;;;;;;13.52;45.31;101592.19;5093834;28;19970;-85
2021/03/10 10:06:09;;;;;;;;;;;;;;;12.80;47.41;101590.94;5092714;28;19985;-84
2021/03/10 10:08:35;;;;;;;;;;;;;;;12.84;46.30;101604.31;5093748;28;19920;-85
2021/03/10 10:11:05;;;;;;;;;;;;;;;12.66;46.14;101595.16;5092580;28;20309;-84
2021/03/10 10:13:30;;;;;;;;;;;;;;;13.42;45.00;101587.19;5083152;28;19969;-86
2021/03/10 10:15:55;;;;;;;;;;;;;;;13.16;45.29;101587.50;5089898;28;20339;-83
2021/03/10 10:18:23;;;;;;;;;;;;;;;13.24;44.70;101590.72;5094217;28;19923;-83
2021/03/10 10:20:48;;;;;;;;;;;;;;;13.38;44.95;101587.41;5093418;28;20369;-84
2021/03/10 10:23:14;;;;;;;;;;;;;;;13.33;44.30;101576.75;5091968;28;20025;-86
2021/03/10 10:25:39;;;;;;;;;;;;;;;13.43;44.36;101574.47;5090967;28;20002;-86
2021/03/10 10:28:04;;;;;;;;;;;;;;;13.56;43.81;101569.34;5092371;28;19923;-85
2021/03/10 10:30:29;;;;;;;;;;;;;;;12.88;44.16;101570.66;5091867;28;19998;-85
2021/03/10 10:32:55;;;;;;;;;;;;;;;12.76;44.87;101573.94;5093235;28;20010;-84
2021/03/10 10:35:20;;;;;;;;;;;;;;;13.46;43.63;101563.47;5092213;28;19916;-84
2021/03/10 10:37:46;;;;;;;;;;;;;;;13.61;43.38;101551.84;5092601;28;19931;-84
2021/03/10 10:40:12;;;;;;;;;;;;;;;14.30;42.02;101561.06;5092892;28;19923;-85
2021/03/10 10:42:37;;;;;;;;;;;;;;;13.36;44.06;101556.69;5092431;28;19927;-85
2021/03/10 10:45:04;;;;;;;;;;;;;;;13.21;44.13;101556.47;5092052;28;19924;-84
2021/03/10 10:47:29;;;;;;;;;;;;;;;13.26;43.97;101551.66;5092079;28;19920;-85
2021/03/10 10:49:54;;;;;;;;;;;;;;;12.85;43.57;101545.47;5093333;28;19970;-85
2021/03/10 10:52:20;;;;;;;;;;;;;;;13.93;42.56;101540.31;5091895;28;19916;-85
2021/03/10 10:54:45;;;;;;;;;;;;;;;13.20;43.41;101546.53;5091954;28;19959;-85
2021/03/10 10:57:10;;;;;;;;;;;;;;;13.72;43.27;101540.41;5092219;28;19952;-86
2021/03/10 10:59:35;;;;;;;;;;;;;;;13.41;43.55;101528.34;5092745;28;19978;-83
2021/03/10 11:02:01;;;;;;;;;;;;;;;14.05;42.36;101536.97;5099602;28;19916;-86
2021/03/10 11:04:26;;;;;;;;;;;;;;;14.06;42.75;101530.56;5107478;28;19927;-83
2021/03/10 11:06:51;;;;;;;;;;;;;;;13.33;43.36;101526.91;5111826;28;19916;-83
2021/03/10 11:09:16;;;;;;;;;;;;;;;13.23;43.20;101524.66;5107196;28;19942;-85
2021/03/10 11:11:42;;;;;;;;;;;;;;;13.45;43.47;101523.63;5108655;28;19916;-84
2021/03/10 11:14:07;;;;;;;;;;;;;;;13.40;43.37;101529.28;5115951;28;19920;-82
2021/03/10 11:16:32;;;;;;;;;;;;;;;13.40;43.39;101523.84;5114205;28;19924;-84
2021/03/10 11:18:57;;;;;;;;;;;;;;;13.19;43.22;101517.59;5103667;28;20053;-84
2021/03/10 11:21:23;;;;;;;;;;;;;;;12.85;44.66;101512.91;5098242;28;20335;-84
2021/03/10 11:23:48;;;;;;;;;;;;;;;13.00;43.88;101512.16;5096020;28;19916;-85
2021/03/10 11:26:13;;;;;;;;;;;;;;;13.79;42.69;101495.66;5095614;28;19916;-83
2021/03/10 11:28:39;;;;;;;;;;;;;;;13.49;43.61;101508.06;5096964;28;20365;-83
2021/03/10 11:31:05;;;;;;;;;;;;;;;13.59;42.74;101498.50;5096584;28;19927;-84
2021/03/10 11:33:30;;;;;;;;;;;;;;;13.21;43.38;101498.50;5095301;28;19920;-83
2021/03/10 11:35:56;;;;;;;;;;;;;;;13.38;43.92;101489.59;5094696;28;19942;-85
2021/03/10 11:38:21;;;;;;;;;;;;;;;13.75;42.70;101501.31;5095393;28;19963;-83
2021/03/10 11:40:46;;;;;;;;;;;;;;;13.47;43.76;101497.28;5095188;28;19927;-85
2021/03/10 11:43:14;;;;;;;;;;;;;;;13.69;42.41;101494.34;5096216;28;20366;-84
2021/03/10 11:45:39;;;;;;;;;;;;;;;14.05;42.75;101485.25;5096547;28;19927;-84
2021/03/10 11:48:04;;;;;;;;;;;;;;;13.30;43.92;101493.50;5094723;28;20011;-85
2021/03/10 11:50:29;;;;;;;;;;;;;;;14.36;42.05;101486.38;5094794;28;19916;-84
2021/03/10 11:52:55;;;;;;;;;;;;;;;14.10;41.51;101485.03;5094662;28;19916;-84
2021/03/10 11:55:20;;;;;;;;;;;;;;;15.30;40.30;101483.09;5095964;28;19920;-85
2021/03/10 11:57:45;;;;;;;;;;;;;;;13.70;43.13;101482.53;5095070;28;19916;-86
2021/03/10 12:00:11;;;;;;;;;;;;;;;14.63;41.31;101477.72;5094730;28;19912;-85
2021/03/10 12:02:36;;;;;;;;;;;;;;;13.65;42.94;101471.00;5094455;28;19927;-85
2021/03/10 12:05:04;;;;;;;;;;;;;;;13.96;42.21;101464.84;5095601;28;20369;-85
2021/03/10 12:07:30;;;;;;;;;;;;;;;13.68;42.52;101459.97;5094467;28;19970;-85
2021/03/10 12:09:55;;;;;;;;;;;;;;;14.44;41.08;101448.72;5095977;28;20366;-85
2021/03/10 12:12:20;;;;;;;;;;;;;;;13.89;43.12;101452.56;5094039;28;19916;-85
2021/03/10 12:14:45;;;;;;;;;;;;;;;14.10;43.32;101439.66;5094515;28;19920;-85
2021/03/10 12:17:11;;;;;;;;;;;;;;;13.87;42.40;101437.28;5094169;28;19920;-86
2021/03/10 12:19:38;;;;;;;;;;;;;;;14.63;42.11;101423.25;5094345;28;19920;-86
2021/03/10 12:22:03;;;;;;;;;;;;;;;13.74;42.89;101410.72;5094006;28;19916;-85
2021/03/10 12:24:28;;;;;;;;;;;;;;;13.96;42.58;101396.84;5094092;28;19924;-84
2021/03/10 12:26:53;;;;;;;;;;;;;;;13.49;43.06;101400.22;5094261;28;19927;-84
2021/03/10 12:29:19;;;;;;;;;;;;;;;13.28;43.55;101400.31;5092966;28;20318;-85
2021/03/10 12:31:44;;;;;;;;;;;;;;;13.31;43.26;101407.44;5089835;28;19965;-84